Time;durP1;ratioP1;P1;durP2;ratioP2;P2;SDS_P1;SDS_P2;PMS_P1;PMS_P2;Temp;Humidity;BMP_temperature;BMP_pressure;BME280_temperature;BME280_humidity;BME280_pressure;Samples;Min_cycle;Max_cycle;Signal;HPM_P1;HPM_P2
2023/10/09 00:04:02;;;;;;;;;;;13.40;99.90;;;;;;20957195;28;19992;-82
2023/10/09 00:14:05;;;;;;;;;;;12.50;99.90;;;;;;20965838;28;19926;-82
2023/10/09 00:24:13;;;;;;;;;;;12.30;99.90;;;;;;20962181;28;19924;-82
2023/10/09 00:34:19;;;;;;;;;;;12.50;99.90;;;;;;20951554;28;20390;-82
2023/10/09 00:44:19;;;;;;;;;;;12.40;99.90;;;;;;20943037;28;19912;-82
2023/10/09 00:54:26;;;;;;;;;;;12.50;99.90;;;;;;20943811;28;19921;-80
2023/10/09 01:04:29;;;;;;;;;;;12.70;99.90;;;;;;20939214;28;19959;-82
2023/10/09 01:14:36;;;;;;;;;;;12.80;99.90;;;;;;20947302;28;19917;-83
2023/10/09 01:24:38;;;;;;;;;;;12.80;99.90;;;;;;20925452;28;19925;-82
2023/10/09 01:34:42;;;;;;;;;;;12.70;99.90;;;;;;20937425;28;20280;-82
2023/10/09 01:44:43;;;;;;;;;;;12.60;99.90;;;;;;20935329;28;19958;-80
2023/10/09 01:54:50;;;;;;;;;;;12.50;99.90;;;;;;20953079;28;20007;-80
2023/10/09 02:05:05;;;;;;;;;;;12.50;99.90;;;;;;20933828;28;20363;-81
2023/10/09 02:15:15;;;;;;;;;;;12.30;99.90;;;;;;20945959;28;19923;-82
2023/10/09 02:25:20;;;;;;;;;;;11.80;99.90;;;;;;20947042;28;19917;-81
2023/10/09 02:35:28;;;;;;;;;;;11.40;99.90;;;;;;20949405;28;19917;-82
2023/10/09 02:45:34;;;;;;;;;;;11.40;99.90;;;;;;20956095;28;19954;-82
2023/10/09 02:55:38;;;;;;;;;;;11.10;99.90;;;;;;20956782;28;20009;-80
2023/10/09 03:05:42;;;;;;;;;;;11.00;99.90;;;;;;20940440;28;20315;-80
2023/10/09 03:15:43;;;;;;;;;;;11.10;99.90;;;;;;20939915;28;20350;-80
2023/10/09 03:25:45;;;;;;;;;;;11.00;99.90;;;;;;20937553;28;19924;-80
2023/10/09 03:35:46;;;;;;;;;;;10.90;99.90;;;;;;20934387;28;20303;-81
2023/10/09 03:45:52;;;;;;;;;;;10.50;99.90;;;;;;20944529;28;19920;-82
2023/10/09 03:55:53;;;;;;;;;;;10.60;99.90;;;;;;20954875;28;20015;-81
2023/10/09 04:05:53;;;;;;;;;;;10.60;99.90;;;;;;20963453;28;20252;-81
2023/10/09 04:15:54;;;;;;;;;;;10.30;99.90;;;;;;20946294;28;20379;-82
2023/10/09 04:25:57;;;;;;;;;;;10.20;99.90;;;;;;20954131;28;19916;-81
2023/10/09 04:46:23;;;;;;;;;;;10.10;99.90;;;;;;20951534;28;20295;-81
2023/10/09 04:56:24;;;;;;;;;;;10.00;99.90;;;;;;20964458;28;19999;-81
2023/10/09 05:06:54;;;;;;;;;;;10.10;99.90;;;;;;20954625;28;20343;-81
2023/10/09 05:16:54;;;;;;;;;;;10.10;99.90;;;;;;20972194;28;19971;-80
2023/10/09 05:27:15;;;;;;;;;;;9.90;99.90;;;;;;20975877;28;20268;-81
2023/10/09 05:37:24;;;;;;;;;;;10.00;99.90;;;;;;20953404;28;19940;-81
2023/10/09 05:47:31;;;;;;;;;;;9.80;99.90;;;;;;20961912;28;19919;-80
2023/10/09 06:08:06;;;;;;;;;;;9.70;99.90;;;;;;20963169;28;19936;-81
2023/10/09 06:28:49;;;;;;;;;;;10.40;99.90;;;;;;20879362;28;19916;-78
2023/10/09 06:39:50;;;;;;;;;;;10.90;99.90;;;;;;20956507;28;19970;-82
2023/10/09 06:49:29;;;;;;;;;;;11.80;99.90;;;;;;20946935;28;19913;-82
2023/10/09 06:59:43;;;;;;;;;;;12.70;99.90;;;;;;20975839;28;19927;-81
2023/10/09 07:10:28;;;;;;;;;;;13.30;99.90;;;;;;20971807;28;19916;-82
2023/10/09 07:20:14;;;;;;;;;;;13.70;99.90;;;;;;20954239;28;19921;-81
2023/10/09 07:40:51;;;;;;;;;;;15.50;99.90;;;;;;20967323;28;19917;-82
2023/10/09 07:50:57;;;;;;;;;;;16.30;99.90;;;;;;20968405;28;20498;-81
2023/10/09 08:21:19;;;;;;;;;;;18.00;99.90;;;;;;20930111;28;20437;-80
2023/10/09 08:31:44;;;;;;;;;;;18.80;99.90;;;;;;20937822;28;19942;-80
2023/10/09 08:41:46;;;;;;;;;;;18.40;99.90;;;;;;20934000;28;19917;-80
2023/10/09 08:51:48;;;;;;;;;;;17.70;99.90;;;;;;20946644;28;20429;-83
2023/10/09 09:01:50;;;;;;;;;;;17.90;99.90;;;;;;20952266;28;19927;-83
2023/10/09 09:11:50;;;;;;;;;;;19.20;99.90;;;;;;20943763;28;19912;-84
2023/10/09 09:21:56;;;;;;;;;;;20.70;99.90;;;;;;20961519;28;19955;-83
2023/10/09 09:32:06;;;;;;;;;;;20.40;99.90;;;;;;20942922;28;19917;-83
2023/10/09 09:42:17;;;;;;;;;;;20.20;99.90;;;;;;20954682;28;20368;-83
2023/10/09 09:52:18;;;;;;;;;;;21.90;99.90;;;;;;20943604;28;20379;-82
2023/10/09 10:02:39;;;;;;;;;;;22.60;99.90;;;;;;20934593;28;20233;-80
2023/10/09 10:13:01;;;;;;;;;;;23.40;99.90;;;;;;20942959;28;19920;-84
2023/10/09 10:23:17;;;;;;;;;;;23.90;99.90;;;;;;20935831;28;20183;-81
2023/10/09 10:33:17;;;;;;;;;;;24.50;99.90;;;;;;20946440;28;20003;-81
2023/10/09 10:53:57;;;;;;;;;;;26.00;99.90;;;;;;20941826;28;19916;-81
2023/10/09 11:03:58;;;;;;;;;;;25.20;99.90;;;;;;20961459;28;19913;-83
2023/10/09 11:14:14;;;;;;;;;;;25.50;99.90;;;;;;20974085;28;19920;-81
2023/10/09 11:24:27;;;;;;;;;;;26.20;99.90;;;;;;20968933;28;19939;-81
2023/10/09 11:34:31;;;;;;;;;;;25.50;99.90;;;;;;20970988;28;19916;-84
2023/10/09 11:44:45;;;;;;;;;;;25.70;99.90;;;;;;20978361;28;19912;-85
2023/10/09 11:54:46;;;;;;;;;;;27.10;99.90;;;;;;20985182;28;20553;-81
2023/10/09 12:04:46;;;;;;;;;;;27.70;99.90;;;;;;20980598;28;19912;-84
2023/10/09 12:14:50;;;;;;;;;;;28.70;99.40;;;;;;20965970;28;19917;-82
2023/10/09 12:24:52;;;;;;;;;;;27.70;97.40;;;;;;20989004;28;20359;-83
2023/10/09 12:34:53;;;;;;;;;;;27.80;96.20;;;;;;20985173;28;19916;-83
2023/10/09 12:44:57;;;;;;;;;;;28.10;94.60;;;;;;20974495;28;19913;-82
2023/10/09 12:54:58;;;;;;;;;;;29.50;93.10;;;;;;20961277;28;20257;-84
2023/10/09 13:05:04;;;;;;;;;;;28.60;93.20;;;;;;20974854;28;19912;-82
2023/10/09 13:15:09;;;;;;;;;;;27.80;94.10;;;;;;20978822;28;19917;-82
2023/10/09 13:25:16;;;;;;;;;;;27.50;94.10;;;;;;20970485;28;19928;-83
2023/10/09 13:35:19;;;;;;;;;;;27.10;95.40;;;;;;20973673;28;20327;-83
2023/10/09 13:45:26;;;;;;;;;;;26.50;96.00;;;;;;20967807;28;19959;-83
2023/10/09 13:55:33;;;;;;;;;;;26.50;97.20;;;;;;20974456;28;20375;-80
2023/10/09 14:05:36;;;;;;;;;;;26.70;97.50;;;;;;20993328;28;19913;-81
2023/10/09 14:15:41;;;;;;;;;;;26.90;97.30;;;;;;21008606;28;20483;-82
2023/10/09 14:25:41;;;;;;;;;;;28.90;95.80;;;;;;20996766;28;19916;-81
2023/10/09 14:35:44;;;;;;;;;;;28.70;94.20;;;;;;20980813;28;19917;-80
2023/10/09 14:45:48;;;;;;;;;;;27.40;95.00;;;;;;20952807;28;19912;-81
2023/10/09 14:55:59;;;;;;;;;;;26.90;95.70;;;;;;20948501;28;20344;-81
2023/10/09 15:06:00;;;;;;;;;;;27.80;95.70;;;;;;20940196;28;19923;-80
2023/10/09 15:16:02;;;;;;;;;;;28.10;95.20;;;;;;20951465;28;19963;-80
2023/10/09 15:26:06;;;;;;;;;;;27.30;95.80;;;;;;20964580;28;19940;-81
2023/10/09 15:36:11;;;;;;;;;;;26.70;96.60;;;;;;20981427;28;19969;-81
2023/10/09 15:46:14;;;;;;;;;;;26.30;97.90;;;;;;20937860;28;20455;-83
2023/10/09 15:56:17;;;;;;;;;;;26.40;98.80;;;;;;20959509;28;19917;-82
2023/10/09 16:06:18;;;;;;;;;;;25.80;99.90;;;;;;20952320;28;19916;-82
2023/10/09 16:16:29;;;;;;;;;;;24.90;99.90;;;;;;20936918;28;20007;-83
2023/10/09 16:26:35;;;;;;;;;;;24.50;99.90;;;;;;20959223;28;20299;-82
2023/10/09 16:36:36;;;;;;;;;;;23.40;99.90;;;;;;20944903;28;19917;-82
2023/10/09 16:46:39;;;;;;;;;;;22.60;99.90;;;;;;20936667;28;19913;-80
2023/10/09 16:56:42;;;;;;;;;;;21.90;99.90;;;;;;20950798;28;19986;-81
2023/10/09 17:06:51;;;;;;;;;;;21.10;99.90;;;;;;20953008;28;19920;-83
2023/10/09 17:16:54;;;;;;;;;;;21.30;99.90;;;;;;20971497;28;20452;-82
2023/10/09 17:26:55;;;;;;;;;;;20.80;99.90;;;;;;20962286;28;19918;-82
2023/10/09 17:36:57;;;;;;;;;;;20.60;99.90;;;;;;20984328;28;20363;-83
2023/10/09 17:46:59;;;;;;;;;;;20.10;99.90;;;;;;20962672;28;19912;-82
2023/10/09 17:57:00;;;;;;;;;;;19.90;99.90;;;;;;20999731;28;20379;-82
2023/10/09 18:07:02;;;;;;;;;;;19.60;99.90;;;;;;20982246;28;19963;-82
2023/10/09 18:17:06;;;;;;;;;;;19.40;99.90;;;;;;20972819;28;19922;-82
2023/10/09 18:27:14;;;;;;;;;;;19.20;99.90;;;;;;20971183;28;20361;-81
2023/10/09 18:37:14;;;;;;;;;;;18.80;99.90;;;;;;20972356;28;19921;-82
2023/10/09 18:47:18;;;;;;;;;;;18.60;99.90;;;;;;20993526;28;19935;-81
2023/10/09 18:57:23;;;;;;;;;;;18.40;99.90;;;;;;20997654;28;19916;-80
2023/10/09 19:07:26;;;;;;;;;;;18.10;99.90;;;;;;20983441;28;20291;-81
2023/10/09 19:17:27;;;;;;;;;;;17.50;99.90;;;;;;21000103;28;19956;-80
2023/10/09 19:27:30;;;;;;;;;;;17.80;99.90;;;;;;20995947;28;20561;-80
2023/10/09 19:37:31;;;;;;;;;;;17.30;99.90;;;;;;20990921;28;20314;-80
2023/10/09 19:47:31;;;;;;;;;;;17.10;99.90;;;;;;20970591;28;19919;-82
2023/10/09 19:57:33;;;;;;;;;;;17.00;99.90;;;;;;20954700;28;20441;-81
2023/10/09 20:07:38;;;;;;;;;;;16.50;99.90;;;;;;20940834;28;19913;-80
2023/10/09 20:17:39;;;;;;;;;;;16.20;99.90;;;;;;20973990;28;19917;-81
2023/10/09 20:27:40;;;;;;;;;;;16.30;99.90;;;;;;20989807;28;19917;-82
2023/10/09 20:37:41;;;;;;;;;;;16.40;99.90;;;;;;20973397;28;19986;-81
2023/10/09 20:47:45;;;;;;;;;;;15.90;99.90;;;;;;20997780;28;19918;-80
2023/10/09 20:57:47;;;;;;;;;;;15.80;99.90;;;;;;21000227;28;19962;-81
2023/10/09 21:07:48;;;;;;;;;;;16.10;99.90;;;;;;21001600;28;19917;-81
2023/10/09 21:17:51;;;;;;;;;;;15.60;99.90;;;;;;20995047;28;19917;-81
2023/10/09 21:27:54;;;;;;;;;;;15.50;99.90;;;;;;20994973;28;19917;-82
2023/10/09 21:38:00;;;;;;;;;;;15.20;99.90;;;;;;21003110;28;20718;-81
2023/10/09 21:48:00;;;;;;;;;;;15.30;99.90;;;;;;20999724;28;19948;-81
2023/10/09 21:58:03;;;;;;;;;;;15.40;99.90;;;;;;20994923;28;19917;-80
2023/10/09 22:08:05;;;;;;;;;;;14.90;99.90;;;;;;21001074;28;20287;-81
2023/10/09 22:18:27;;;;;;;;;;;15.00;99.90;;;;;;20993896;28;19956;-80
2023/10/09 22:28:28;;;;;;;;;;;14.80;99.90;;;;;;21000919;28;19970;-80
2023/10/09 22:38:29;;;;;;;;;;;14.50;99.90;;;;;;21015354;28;19971;-80
2023/10/09 22:48:30;;;;;;;;;;;14.40;99.90;;;;;;21002387;28;19965;-80
2023/10/09 22:58:36;;;;;;;;;;;14.50;99.90;;;;;;21010834;28;19920;-80
2023/10/09 23:08:38;;;;;;;;;;;14.20;99.90;;;;;;21008418;28;19972;-81
2023/10/09 23:19:06;;;;;;;;;;;14.30;99.90;;;;;;21004539;28;19916;-80
2023/10/09 23:29:09;;;;;;;;;;;14.00;99.90;;;;;;21007320;28;19917;-81
2023/10/09 23:39:10;;;;;;;;;;;14.10;99.90;;;;;;21010339;28;19925;-80
2023/10/09 23:49:17;;;;;;;;;;;13.80;99.90;;;;;;21002580;28;20179;-80
2023/10/09 23:59:18;;;;;;;;;;;13.60;99.90;;;;;;21012799;28;20007;-80
